San Felipe, TX (77473)

7:55 PM CST on December 08, 2016 (GMT -0600)
San Felipe Area | | Change Station
Active Advisory: Freeze Warning

Elev 185 ft 29.80 °N, 96.12 °W | Updated 4 seconds ago

Overcast
Overcast
41.2 °F
Feels Like 34 °F
N
14.0
Wind Variable Wind from NNW
Gusts 20.0 mph

Today
High -- | Low -- °F
--% Chance of Precip.
Yesterday
High -- | Low -- °F
Precip. -- in
Pressure 30.52 in
Visibility 10.0 miles
Clouds Overcast 10000 ft
Windchill 34 °F
Dew Point 33 °F
Humidity 73%
Rainfall 0.07 in
Snow Depth Not available.
7:07 AM 5:25 PM
Waxing Gibbous, 69% visible
METAR KSGR 090053Z 01015KT 10SM OVC100 07/01 A3051 RMK AO2 RAB17E34 SLP333 P0000 T00720006
Pressure 30.52 in
Visibility 10.0 miles
Clouds Overcast 10000 ft
Windchill 34 °F
Dew Point 33 °F
Humidity 73%
Rainfall 0.07 in
Snow Depth Not available.
7:07 AM 5:25 PM
Waxing Gibbous, 69% visible
METAR KSGR 090053Z 01015KT 10SM OVC100 07/01 A3051 RMK AO2 RAB17E34 SLP333 P0000 T00720006

10-Day Weather Forecast

Almanac

Astronomy

Dec. 08, 2016 Rise Set
Actual Time
Civil Twilight
Nautical Twilight
Astronomical Twilight
Moon
Length of Visible Light
Length of Day
Tomorrow will be .
, % of the Moon is Illuminated

Today's Extremes

State Highs State Lows

Community

WunderPhotos

Upload Photos

1,956,351 photos uploaded!

WunderBlog® & News

Nearby

Air Quality

  Air Quality AQ Index Pollutant
Not available.

Snow Depth

Station Depth Elevation

Earthquake Activity

City Distance Mag. Time & Date
Minimum magnitude displayed is 2.5.

Coastal Water Temperatures

Place Temperature

Stations

Nearby Weather Stations

Station Location Temp. Windchill Dew Point Humidity Wind Precip. Elev Updated Type
                   

Watches & Warnings

Freeze Warning
Issued: 6:07 PM CST Dec. 8, 2016 – National Weather Service

... Freeze warning remains in effect from midnight tonight to 9 am CST
Friday...

* event... temperatures 27 to 32 degrees

* timing... midnight to 9 am CST Friday

* impact... damage to tender vegetation and sensitive plants may occur
and these plants should be protected

Precautionary/preparedness actions...

A freeze warning means sub-freezing temperatures are imminent or highly
likely. These conditions will kill crops and other sensitive vegetation.